createdAt,value
2023-04-02T00:01:37.326Z,67
2023-04-02T00:03:17.195Z,70
2023-04-02T00:04:56.937Z,70
2023-04-02T00:06:36.715Z,67
2023-04-02T00:08:16.505Z,67
2023-04-02T00:09:56.135Z,69
2023-04-02T00:11:36.125Z,69
2023-04-02T00:13:15.723Z,67
2023-04-02T00:14:55.569Z,67
2023-04-02T00:16:35.275Z,65
2023-04-02T00:18:14.961Z,66
2023-04-02T00:19:54.851Z,64
2023-04-02T00:21:34.756Z,63
2023-04-02T00:23:14.309Z,62
2023-04-02T00:24:54.136Z,66
2023-04-02T00:26:34.009Z,66
2023-04-02T00:28:13.602Z,66
2023-04-02T00:29:53.408Z,67
2023-04-02T00:31:33.111Z,67
2023-04-02T00:33:12.980Z,68
2023-04-02T00:34:52.709Z,69
2023-04-02T00:36:32.581Z,68
2023-04-02T00:38:12.179Z,66
2023-04-02T00:39:51.974Z,67
2023-04-02T00:41:31.761Z,68
2023-04-02T00:43:11.495Z,68
2023-04-02T00:44:51.407Z,68
2023-04-02T00:46:31.118Z,68
2023-04-02T00:48:10.992Z,66
2023-04-02T00:49:50.562Z,64
2023-04-02T00:51:30.316Z,65
2023-04-02T00:53:10.257Z,65
2023-04-02T00:54:50.071Z,64
2023-04-02T00:56:29.785Z,63
2023-04-02T00:58:09.548Z,62
2023-04-02T00:59:49.348Z,63
2023-04-02T01:01:28.984Z,60
2023-04-02T01:03:08.722Z,62
2023-04-02T01:04:48.587Z,63
2023-04-02T01:06:28.327Z,62
2023-04-02T01:08:07.996Z,61
2023-04-02T01:09:47.899Z,62
2023-04-02T01:11:27.522Z,62
2023-04-02T01:13:07.280Z,62
2023-04-02T01:14:47.200Z,62
2023-04-02T01:16:26.916Z,63
2023-04-02T01:18:06.607Z,63
2023-04-02T01:19:46.461Z,65
2023-04-02T01:21:26.249Z,64
2023-04-02T01:23:06.003Z,66
2023-04-02T01:24:45.677Z,66
2023-04-02T01:26:25.502Z,64
2023-04-02T01:28:05.336Z,62
2023-04-02T01:29:45.087Z,62
2023-04-02T01:31:24.759Z,61
2023-04-02T01:33:04.596Z,62
2023-04-02T01:34:44.426Z,63
2023-04-02T01:36:24.049Z,63
2023-04-02T01:38:03.899Z,63
2023-04-02T01:39:43.685Z,63
2023-04-02T01:41:23.365Z,64
2023-04-02T01:43:03.236Z,64
2023-04-02T01:44:43.061Z,62
2023-04-02T01:46:22.755Z,60
2023-04-02T01:48:02.400Z,60
2023-04-02T01:49:42.309Z,63
2023-04-02T01:51:22.030Z,62
2023-04-02T01:53:01.699Z,62
2023-04-02T01:54:41.466Z,62
2023-04-02T01:56:21.323Z,61
2023-04-02T01:58:01.166Z,58
2023-04-02T01:59:40.776Z,57
2023-04-02T02:01:20.644Z,59
2023-04-02T02:03:00.431Z,60
2023-04-02T02:04:40.216Z,61
2023-04-02T02:06:20.024Z,61
2023-04-02T02:07:59.681Z,61
2023-04-02T02:09:39.528Z,61
2023-04-02T02:11:19.277Z,60
2023-04-02T02:12:58.909Z,58
2023-04-02T02:14:38.752Z,61
2023-04-02T02:16:18.640Z,60
2023-04-02T02:17:58.304Z,61
2023-04-02T02:19:38.073Z,59
2023-04-02T02:21:17.863Z,60
2023-04-02T02:22:57.637Z,59
2023-04-02T02:24:37.474Z,61
2023-04-02T02:26:17.216Z,62
2023-04-02T02:27:57.048Z,62
2023-04-02T02:29:36.707Z,62
2023-04-02T02:31:16.344Z,61
2023-04-02T02:32:56.206Z,61
2023-04-02T02:34:36.101Z,60
2023-04-02T02:36:15.732Z,60
2023-04-02T02:37:55.423Z,62
2023-04-02T02:39:35.201Z,62
2023-04-02T02:41:15.121Z,63
2023-04-02T02:42:54.835Z,63
2023-04-02T02:44:34.655Z,63
2023-04-02T02:46:14.294Z,63
2023-04-02T02:47:54.194Z,63
2023-04-02T02:49:33.795Z,62
2023-04-02T02:51:13.615Z,63
2023-04-02T02:52:53.448Z,63
2023-04-02T02:54:33.108Z,64
2023-04-02T02:56:12.861Z,63
2023-04-02T02:57:52.617Z,63
2023-04-02T02:59:32.394Z,60
2023-04-02T03:01:12.230Z,61
2023-04-02T03:02:52.043Z,63
2023-04-02T03:04:31.720Z,63
2023-04-02T03:06:11.491Z,62
2023-04-02T03:07:51.358Z,64
2023-04-02T03:09:31.059Z,64
2023-04-02T03:11:10.768Z,64
2023-04-02T03:12:50.523Z,65
2023-04-02T03:14:30.498Z,62
2023-04-02T03:16:10.205Z,63
2023-04-02T03:17:49.839Z,63
2023-04-02T03:19:29.761Z,64
2023-04-02T03:21:09.519Z,64
2023-04-02T03:22:49.284Z,62
2023-04-02T03:24:28.946Z,64
2023-04-02T03:26:08.668Z,64
2023-04-02T03:27:48.628Z,64
2023-04-02T03:29:28.187Z,63
2023-04-02T03:31:07.965Z,63
2023-04-02T03:32:47.731Z,63
2023-04-02T03:34:27.612Z,64
2023-04-02T03:36:07.270Z,64
2023-04-02T03:37:47.124Z,64
2023-04-02T03:39:26.839Z,64
2023-04-02T03:41:06.567Z,63
2023-04-02T03:42:46.449Z,64
2023-04-02T03:44:26.286Z,64
2023-04-02T03:46:05.873Z,63
2023-04-02T03:47:45.793Z,60
2023-04-02T03:49:25.605Z,60
2023-04-02T03:51:05.331Z,61
2023-04-02T03:52:44.988Z,63
2023-04-02T03:54:24.750Z,64
2023-04-02T03:56:04.548Z,63
2023-04-02T03:57:44.308Z,63
2023-04-02T03:59:24.003Z,63
2023-04-02T04:01:03.826Z,63
2023-04-02T04:02:43.608Z,63
2023-04-02T04:04:23.325Z,62
2023-04-02T04:06:03.128Z,61
2023-04-02T04:07:43.021Z,59
2023-04-02T04:09:22.621Z,58
2023-04-02T04:11:02.374Z,59
2023-04-02T04:12:42.133Z,59
2023-04-02T04:14:21.959Z,62
2023-04-02T04:16:01.700Z,61
2023-04-02T04:17:41.440Z,61
2023-04-02T04:19:21.212Z,60
2023-04-02T04:21:01.108Z,58
2023-04-02T04:22:40.741Z,59
2023-04-02T04:24:20.523Z,59
2023-04-02T04:26:00.357Z,57
2023-04-02T04:27:40.042Z,60
2023-04-02T04:29:19.850Z,61
2023-04-02T04:30:59.714Z,61
2023-04-02T04:32:39.327Z,62
2023-04-02T04:34:19.097Z,60
2023-04-02T04:35:58.965Z,62
2023-04-02T04:37:38.680Z,61
2023-04-02T04:39:18.408Z,62
2023-04-02T04:40:58.157Z,61
2023-04-02T04:42:37.930Z,62
2023-04-02T04:44:17.715Z,62
2023-04-02T04:45:57.517Z,61
2023-04-02T04:47:37.237Z,58
2023-04-02T04:49:16.984Z,59
2023-04-02T04:50:56.774Z,60
2023-04-02T04:52:36.532Z,60
2023-04-02T04:54:16.303Z,61
2023-04-02T04:55:56.070Z,61
2023-04-02T04:57:35.919Z,61
2023-04-02T04:59:15.622Z,60
2023-04-02T05:00:55.358Z,60
2023-04-02T05:02:35.140Z,58
2023-04-02T05:04:14.910Z,58
2023-04-02T05:05:54.662Z,58
2023-04-02T05:07:34.465Z,57
2023-04-02T05:09:14.238Z,57
2023-04-02T05:10:54.015Z,57
2023-04-02T05:12:33.770Z,55
2023-04-02T05:14:13.506Z,53
2023-04-02T05:15:53.279Z,48
2023-04-02T05:17:33.038Z,44
2023-04-02T05:19:12.812Z,38
2023-04-02T05:20:52.571Z,32
2023-04-02T05:22:32.328Z,27
2023-04-02T05:24:12.108Z,27
2023-04-02T05:25:51.895Z,27
2023-04-02T05:27:31.647Z,27
2023-04-02T05:29:11.401Z,27
2023-04-02T05:30:51.233Z,27
2023-04-02T05:32:30.938Z,27
2023-04-02T05:34:10.731Z,27
2023-04-02T05:35:50.592Z,28
2023-04-02T05:37:30.265Z,28
2023-04-02T05:39:10.025Z,28
2023-04-02T05:40:49.792Z,28
2023-04-02T05:42:29.713Z,28
2023-04-02T05:44:09.376Z,29
2023-04-02T05:45:49.107Z,29
2023-04-02T05:47:28.869Z,30
2023-04-02T05:49:08.653Z,30
2023-04-02T05:50:48.498Z,31
2023-04-02T05:52:28.189Z,32
2023-04-02T05:54:07.974Z,33
2023-04-02T05:55:47.720Z,33
2023-04-02T05:57:27.489Z,34
2023-04-02T05:59:07.268Z,35
2023-04-02T06:00:47.044Z,35
2023-04-02T06:02:26.800Z,37
2023-04-02T06:04:06.638Z,38
2023-04-02T06:05:46.355Z,40
2023-04-02T06:07:26.205Z,42
2023-04-02T06:09:05.884Z,43
2023-04-02T06:10:45.652Z,43
2023-04-02T06:12:25.468Z,45
2023-04-02T06:14:05.194Z,46
2023-04-02T06:15:45.070Z,47
2023-04-02T06:17:24.737Z,48
2023-04-02T06:19:04.525Z,48
2023-04-02T06:20:44.275Z,50
2023-04-02T06:22:24.055Z,52
2023-04-02T06:24:03.821Z,54
2023-04-02T06:25:43.608Z,55
2023-04-02T06:27:23.441Z,56
2023-04-02T06:29:03.127Z,60
2023-04-02T06:30:42.894Z,64
2023-04-02T06:32:22.663Z,70
2023-04-02T06:34:02.424Z,76
2023-04-02T06:35:42.205Z,82
2023-04-02T06:37:22.009Z,88
2023-04-02T06:39:01.737Z,91
2023-04-02T06:40:41.518Z,91
2023-04-02T06:42:21.280Z,91
2023-04-02T06:44:01.059Z,91
2023-04-02T06:45:40.833Z,92
2023-04-02T06:47:20.598Z,92
2023-04-02T06:49:00.373Z,92
2023-04-02T06:50:40.156Z,92
2023-04-02T06:52:19.957Z,92
2023-04-02T06:53:59.683Z,92
2023-04-02T06:55:39.467Z,92
2023-04-02T06:57:19.223Z,92
2023-04-02T06:58:58.989Z,92
2023-04-02T07:00:38.764Z,92
2023-04-02T07:02:18.540Z,93
2023-04-02T07:03:58.339Z,92
2023-04-02T07:05:38.177Z,92
2023-04-02T07:07:17.840Z,93
2023-04-02T07:08:57.614Z,93
2023-04-02T07:10:37.373Z,93
2023-04-02T07:12:17.176Z,93
2023-04-02T07:13:56.924Z,93
2023-04-02T07:15:36.690Z,93
2023-04-02T07:17:16.463Z,93
2023-04-02T07:18:56.211Z,93
2023-04-02T07:20:35.998Z,93
2023-04-02T07:22:15.768Z,94
2023-04-02T07:23:55.530Z,94
2023-04-02T07:25:35.423Z,94
2023-04-02T07:27:15.077Z,94
2023-04-02T07:28:54.962Z,93
2023-04-02T07:30:34.625Z,94
2023-04-02T07:32:14.398Z,94
2023-04-02T07:33:54.174Z,94
2023-04-02T07:35:34.055Z,94
2023-04-02T07:37:13.698Z,94
2023-04-02T07:38:53.470Z,94
2023-04-02T07:40:33.253Z,95
2023-04-02T07:42:13.015Z,95
2023-04-02T07:43:52.773Z,95
2023-04-02T07:45:32.628Z,95
2023-04-02T07:47:12.314Z,95
2023-04-02T07:48:52.128Z,95
2023-04-02T07:50:31.865Z,95
2023-04-02T07:52:11.648Z,95
2023-04-02T07:53:51.415Z,95
2023-04-02T07:55:31.289Z,95
2023-04-02T07:57:10.982Z,95
2023-04-02T07:58:50.787Z,96
2023-04-02T08:00:30.495Z,96
2023-04-02T08:02:10.251Z,96
2023-04-02T08:03:50.032Z,95
2023-04-02T08:05:29.927Z,96
2023-04-02T08:07:09.565Z,96
2023-04-02T08:08:49.388Z,96
2023-04-02T08:10:29.098Z,96
2023-04-02T08:12:08.875Z,96
2023-04-02T08:13:48.646Z,96
2023-04-02T08:15:28.537Z,96
2023-04-02T08:17:08.194Z,97
2023-04-02T08:18:48.107Z,97
2023-04-02T08:20:27.726Z,97
2023-04-02T08:22:07.487Z,97
2023-04-02T08:23:47.271Z,97
2023-04-02T08:25:27.214Z,97
2023-04-02T08:27:06.828Z,97
2023-04-02T08:28:46.617Z,97
2023-04-02T08:30:26.348Z,97
2023-04-02T08:32:06.131Z,97
2023-04-02T08:33:45.883Z,97
2023-04-02T08:35:25.751Z,98
2023-04-02T08:37:05.449Z,98
2023-04-02T08:38:45.200Z,98
2023-04-02T08:40:24.987Z,98
2023-04-02T08:42:04.754Z,98
2023-04-02T08:43:44.502Z,98
2023-04-02T08:45:24.273Z,98
2023-04-02T08:47:04.074Z,98
2023-04-02T08:48:43.936Z,98
2023-04-02T08:50:23.668Z,98
2023-04-02T08:52:03.521Z,98
2023-04-02T08:53:43.141Z,99
2023-04-02T08:55:23.074Z,99
2023-04-02T08:57:02.721Z,99
2023-04-02T08:58:42.448Z,99
2023-04-02T09:00:22.245Z,99
2023-04-02T09:02:02.048Z,99
2023-04-02T09:03:41.828Z,99
2023-04-02T09:05:21.687Z,99
2023-04-02T09:07:01.314Z,99
2023-04-02T09:08:41.056Z,99
2023-04-02T09:10:20.832Z,99
2023-04-02T09:12:00.605Z,100
2023-04-02T09:13:40.369Z,99
2023-04-02T09:15:20.223Z,100
2023-04-02T09:16:59.997Z,100
2023-04-02T09:18:39.746Z,100
2023-04-02T09:20:19.456Z,100
2023-04-02T09:21:59.265Z,100
2023-04-02T09:23:38.990Z,100
2023-04-02T09:25:18.768Z,100
2023-04-02T09:26:58.563Z,100
2023-04-02T09:28:38.305Z,100
2023-04-02T09:30:18.081Z,100
2023-04-02T09:31:57.917Z,100
2023-04-02T09:33:37.684Z,100
2023-04-02T09:35:17.374Z,100
2023-04-02T09:36:57.150Z,100
2023-04-02T09:38:36.994Z,100
2023-04-02T09:40:16.688Z,100
2023-04-02T09:41:56.494Z,100
2023-04-02T09:43:36.232Z,100
2023-04-02T09:45:16.021Z,100
2023-04-02T09:46:55.759Z,100
2023-04-02T09:48:35.533Z,100
2023-04-02T09:50:15.303Z,100
2023-04-02T09:51:55.109Z,100
2023-04-02T09:53:34.847Z,100
2023-04-02T09:55:14.625Z,100
2023-04-02T09:56:54.495Z,100
2023-04-02T09:58:34.155Z,100
2023-04-02T10:00:13.961Z,100
2023-04-02T10:01:53.759Z,100
2023-04-02T10:03:33.490Z,100
2023-04-02T10:05:13.243Z,100
2023-04-02T10:06:53.104Z,100
2023-04-02T10:08:32.777Z,100
2023-04-02T10:10:12.583Z,100
2023-04-02T10:11:52.445Z,100
2023-04-02T10:13:32.117Z,100
2023-04-02T10:15:11.848Z,100
2023-04-02T10:16:51.655Z,100
2023-04-02T10:18:31.424Z,100
2023-04-02T10:20:11.220Z,100
2023-04-02T10:21:50.949Z,100
2023-04-02T10:23:30.718Z,100
2023-04-02T10:25:10.479Z,100
2023-04-02T10:26:50.260Z,100
2023-04-02T10:28:30.023Z,100
2023-04-02T10:30:09.781Z,100
2023-04-02T10:31:49.567Z,100
2023-04-02T10:33:29.335Z,100
2023-04-02T10:35:09.122Z,100
2023-04-02T10:36:48.869Z,100
2023-04-02T10:38:28.682Z,100
2023-04-02T10:40:08.417Z,100
2023-04-02T10:41:48.188Z,100
2023-04-02T10:43:27.954Z,100
2023-04-02T10:45:07.732Z,100
2023-04-02T10:46:47.519Z,100
2023-04-02T10:48:27.246Z,100
2023-04-02T10:50:07.031Z,100
2023-04-02T10:51:46.803Z,100
2023-04-02T10:53:26.585Z,100
2023-04-02T10:55:06.339Z,100
2023-04-02T10:56:46.177Z,100
2023-04-02T10:58:25.882Z,100
2023-04-02T11:00:05.660Z,100
2023-04-02T11:01:45.413Z,100
2023-04-02T11:03:25.209Z,100
2023-04-02T11:05:04.959Z,100
2023-04-02T11:06:44.858Z,100
2023-04-02T11:08:24.516Z,100
2023-04-02T11:10:04.366Z,100
2023-04-02T11:11:44.042Z,100
2023-04-02T11:13:23.811Z,100
2023-04-02T11:15:03.611Z,100
2023-04-02T11:16:43.456Z,100
2023-04-02T11:18:23.118Z,100
2023-04-02T11:20:02.928Z,100
2023-04-02T11:21:42.655Z,100
2023-04-02T11:23:22.586Z,100
2023-04-02T11:25:02.263Z,100
2023-04-02T11:26:42.004Z,100
2023-04-02T11:28:21.739Z,100
2023-04-02T11:30:01.519Z,100
2023-04-02T11:31:41.289Z,100
2023-04-02T11:33:21.216Z,100
2023-04-02T11:35:00.821Z,100
2023-04-02T11:36:40.605Z,100
2023-04-02T11:38:20.356Z,100
2023-04-02T11:40:00.141Z,100
2023-04-02T11:41:39.900Z,100
2023-04-02T11:43:19.670Z,100
2023-04-02T11:44:59.441Z,100
2023-04-02T11:46:39.229Z,100
2023-04-02T11:48:18.979Z,100
2023-04-02T11:49:58.785Z,100
2023-04-02T11:51:38.543Z,100
2023-04-02T11:53:18.281Z,100
2023-04-02T11:54:58.113Z,100
2023-04-02T11:56:37.899Z,100
2023-04-02T11:58:17.620Z,100
2023-04-02T11:59:57.366Z,100
2023-04-02T12:01:37.230Z,100
2023-04-02T12:03:17.053Z,100
2023-04-02T12:04:56.681Z,100
2023-04-02T12:06:36.502Z,100
2023-04-02T12:08:16.351Z,100
2023-04-02T12:09:56.021Z,100
2023-04-02T12:11:35.847Z,100
2023-04-02T12:13:15.533Z,100
2023-04-02T12:14:55.314Z,100
2023-04-02T12:16:35.103Z,100
2023-04-02T12:18:14.860Z,100
2023-04-02T12:19:54.641Z,100
2023-04-02T12:21:34.416Z,100
2023-04-02T12:23:14.157Z,100
2023-04-02T12:24:53.990Z,100
2023-04-02T12:26:33.694Z,100
2023-04-02T12:28:13.468Z,100
2023-04-02T12:29:53.314Z,100
2023-04-02T12:31:33.032Z,100
2023-04-02T12:33:12.777Z,100
2023-04-02T12:34:52.544Z,100
2023-04-02T12:36:32.413Z,100
2023-04-02T12:38:12.085Z,100
2023-04-02T12:39:51.847Z,100
2023-04-02T12:41:31.693Z,100
2023-04-02T12:43:11.390Z,100
2023-04-02T12:44:51.174Z,100
2023-04-02T12:46:30.952Z,100
2023-04-02T12:48:10.765Z,100
2023-04-02T12:49:50.487Z,100
2023-04-02T12:51:30.247Z,100
2023-04-02T12:53:10.089Z,100
2023-04-02T12:54:49.939Z,100
2023-04-02T12:56:29.561Z,100
2023-04-02T12:58:09.385Z,100
2023-04-02T12:59:49.104Z,100
2023-04-02T13:01:28.867Z,100
2023-04-02T13:03:08.660Z,100
2023-04-02T13:04:48.414Z,100
2023-04-02T13:06:28.173Z,100
2023-04-02T13:08:07.975Z,100
2023-04-02T13:09:47.729Z,100
2023-04-02T13:11:27.486Z,100
2023-04-02T13:13:07.258Z,100
2023-04-02T13:14:47.025Z,100
2023-04-02T13:16:26.822Z,100
2023-04-02T13:18:06.585Z,100
2023-04-02T13:19:46.388Z,100
2023-04-02T13:21:26.121Z,100
2023-04-02T13:23:05.916Z,100
2023-04-02T13:24:45.666Z,100
2023-04-02T13:26:25.432Z,100
2023-04-02T13:28:05.192Z,100
2023-04-02T13:29:44.972Z,100
2023-04-02T13:31:24.865Z,100
2023-04-02T13:33:04.528Z,100
2023-04-02T13:36:24.071Z,100
2023-04-02T13:39:43.596Z,100
2023-04-02T13:41:23.376Z,100
2023-04-02T13:43:03.116Z,100
2023-04-02T13:44:42.931Z,100
2023-04-02T13:46:22.696Z,100
2023-04-02T13:48:02.471Z,100
2023-04-02T13:49:42.200Z,100
2023-04-02T13:51:22.023Z,100
2023-04-02T13:53:01.752Z,100
2023-04-02T13:54:41.533Z,100
2023-04-02T13:56:21.301Z,100
2023-04-02T13:58:01.059Z,100
2023-04-02T13:59:40.820Z,100
2023-04-02T14:01:20.627Z,100
2023-04-02T14:03:00.370Z,100
2023-04-02T14:04:40.138Z,100
2023-04-02T14:06:20.030Z,100
2023-04-02T14:07:59.701Z,100
2023-04-02T14:09:39.460Z,100
2023-04-02T14:11:19.218Z,100
2023-04-02T14:12:58.991Z,100
2023-04-02T14:14:38.770Z,100
2023-04-02T14:16:18.523Z,100
2023-04-02T14:17:58.328Z,100
2023-04-02T14:19:38.159Z,100
2023-04-02T14:21:17.887Z,100
2023-04-02T14:22:57.679Z,100
2023-04-02T14:24:37.388Z,100
2023-04-02T14:26:17.161Z,100
2023-04-02T14:27:56.958Z,100
2023-04-02T14:29:36.711Z,100
2023-04-02T14:31:16.534Z,100
2023-04-02T14:32:56.234Z,100
2023-04-02T14:34:36.174Z,100
2023-04-02T14:36:15.787Z,100
2023-04-02T14:37:55.566Z,100
2023-04-02T14:39:35.318Z,100
2023-04-02T14:41:15.110Z,100
2023-04-02T14:42:54.867Z,100
2023-04-02T14:44:34.639Z,100
2023-04-02T14:46:14.396Z,100
2023-04-02T14:47:54.162Z,100
2023-04-02T14:49:33.942Z,100
2023-04-02T14:51:13.733Z,100
2023-04-02T14:52:53.485Z,100
2023-04-02T14:54:33.300Z,100
2023-04-02T14:56:13.024Z,100
2023-04-02T14:57:52.830Z,100
2023-04-02T14:59:32.562Z,100
2023-04-02T15:01:12.332Z,100
2023-04-02T15:02:52.168Z,100
2023-04-02T15:04:31.943Z,100
2023-04-02T15:06:11.637Z,100
2023-04-02T15:07:51.413Z,100
2023-04-02T15:09:31.201Z,100
2023-04-02T15:11:11.017Z,100
2023-04-02T15:12:50.805Z,100
2023-04-02T15:14:30.535Z,100
2023-04-02T15:16:10.259Z,100
2023-04-02T15:17:50.039Z,100
2023-04-02T15:19:29.824Z,100
2023-04-02T15:21:09.566Z,100
2023-04-02T15:22:49.434Z,100
2023-04-02T15:24:29.118Z,100
2023-04-02T15:26:08.882Z,100
2023-04-02T15:27:48.651Z,100
2023-04-02T15:29:28.423Z,100
2023-04-02T15:31:08.344Z,100
2023-04-02T15:32:48.126Z,100
2023-04-02T15:34:27.730Z,100
2023-04-02T15:36:07.616Z,100
2023-04-02T15:37:47.280Z,100
2023-04-02T15:39:27.050Z,100
2023-04-02T15:41:06.820Z,100
2023-04-02T15:42:46.603Z,100
2023-04-02T15:44:26.368Z,100
2023-04-02T15:46:06.127Z,100
2023-04-02T15:47:45.895Z,100
2023-04-02T15:49:25.677Z,100
2023-04-02T15:51:05.450Z,100
2023-04-02T15:52:45.191Z,100
2023-04-02T15:54:24.979Z,100
2023-04-02T15:56:04.751Z,100
2023-04-02T15:57:44.563Z,100
2023-04-02T15:59:24.284Z,100
2023-04-02T16:01:04.069Z,100
2023-04-02T16:02:43.829Z,100
2023-04-02T16:04:23.606Z,100
2023-04-02T16:06:03.378Z,100
2023-04-02T16:07:43.139Z,100
2023-04-02T16:09:22.908Z,100
2023-04-02T16:11:02.832Z,100
2023-04-02T16:12:42.474Z,100
2023-04-02T16:14:22.252Z,100
2023-04-02T16:16:02.016Z,100
2023-04-02T16:17:41.762Z,100
2023-04-02T16:19:21.540Z,100
2023-04-02T16:21:01.371Z,100
2023-04-02T16:22:41.086Z,100
2023-04-02T16:24:20.840Z,100
2023-04-02T16:26:00.650Z,100
2023-04-02T16:27:40.411Z,100
2023-04-02T16:29:20.158Z,100
2023-04-02T16:31:00.062Z,100
2023-04-02T16:32:39.692Z,100
2023-04-02T16:34:19.468Z,100
2023-04-02T16:35:59.281Z,100
2023-04-02T16:37:39.054Z,100
2023-04-02T16:39:18.789Z,100
2023-04-02T16:40:58.572Z,100
2023-04-02T16:42:38.365Z,100
2023-04-02T16:44:18.099Z,100
2023-04-02T16:45:57.861Z,100
2023-04-02T16:47:37.632Z,100
2023-04-02T16:49:17.387Z,100
2023-04-02T16:50:57.199Z,100
2023-04-02T16:52:36.946Z,100
2023-04-02T16:54:16.709Z,100
2023-04-02T16:55:56.491Z,100
2023-04-02T16:57:36.279Z,100
2023-04-02T16:59:16.022Z,100
2023-04-02T17:00:55.873Z,100
2023-04-02T17:02:35.557Z,100
2023-04-02T17:04:15.345Z,100
2023-04-02T17:05:55.092Z,100
2023-04-02T17:07:34.914Z,100
2023-04-02T17:09:14.633Z,100
2023-04-02T17:10:54.501Z,100
2023-04-02T17:12:34.203Z,100
2023-04-02T17:14:13.939Z,100
2023-04-02T17:15:53.709Z,100
2023-04-02T17:17:33.479Z,100
2023-04-02T17:19:13.264Z,100
2023-04-02T17:20:53.032Z,100
2023-04-02T17:22:32.798Z,100
2023-04-02T17:24:12.590Z,100
2023-04-02T17:25:52.334Z,100
2023-04-02T17:27:32.104Z,100
2023-04-02T17:29:11.874Z,100
2023-04-02T17:30:51.719Z,100
2023-04-02T17:32:31.408Z,100
2023-04-02T17:34:11.340Z,100
2023-04-02T17:35:50.944Z,100
2023-04-02T17:37:30.787Z,100
2023-04-02T17:39:10.540Z,100
2023-04-02T17:40:50.344Z,100
2023-04-02T17:42:30.031Z,100
2023-04-02T17:44:09.872Z,100
2023-04-02T17:45:49.566Z,100
2023-04-02T17:47:29.360Z,100
2023-04-02T17:49:09.120Z,100
2023-04-02T17:50:48.859Z,100
2023-04-02T17:52:28.647Z,100
2023-04-02T17:54:08.406Z,100
2023-04-02T17:55:48.167Z,100
2023-04-02T17:57:27.928Z,99
2023-04-02T17:59:07.713Z,98
2023-04-02T18:00:47.604Z,97
2023-04-02T18:02:27.240Z,97
2023-04-02T18:04:06.994Z,96
2023-04-02T18:05:46.753Z,95
2023-04-02T18:07:26.525Z,95
2023-04-02T18:09:06.297Z,95
2023-04-02T18:10:46.062Z,94
2023-04-02T18:12:25.826Z,94
2023-04-02T18:14:05.612Z,93
2023-04-02T18:15:45.371Z,92
2023-04-02T18:17:25.159Z,92
2023-04-02T18:19:04.904Z,92
2023-04-02T18:20:44.734Z,91
2023-04-02T18:22:24.465Z,91
2023-04-02T18:24:04.215Z,90
2023-04-02T18:25:43.982Z,90
2023-04-02T18:27:23.743Z,89
2023-04-02T18:29:03.536Z,89
2023-04-02T18:30:43.275Z,89
2023-04-02T18:32:23.036Z,88
2023-04-02T18:34:02.935Z,88
2023-04-02T18:35:42.581Z,88
2023-04-02T18:37:22.343Z,87
2023-04-02T18:39:02.108Z,87
2023-04-02T18:40:41.872Z,86
2023-04-02T18:42:21.662Z,86
2023-04-02T18:44:01.443Z,86
2023-04-02T18:45:41.290Z,85
2023-04-02T18:47:20.971Z,85
2023-04-02T18:49:00.790Z,85
2023-04-02T18:50:40.484Z,85
2023-04-02T18:52:20.325Z,85
2023-04-02T18:54:00.015Z,84
2023-04-02T18:55:39.858Z,84
2023-04-02T18:57:19.685Z,84
2023-04-02T18:58:59.468Z,83
2023-04-02T19:00:39.234Z,83
2023-04-02T19:02:19.049Z,83
2023-04-02T19:03:58.791Z,82
2023-04-02T19:05:38.381Z,83
2023-04-02T19:07:18.334Z,82
2023-04-02T19:08:58.066Z,82
2023-04-02T19:10:37.884Z,82
2023-04-02T19:12:17.570Z,82
2023-04-02T19:13:57.383Z,81
2023-04-02T19:15:37.167Z,81
2023-04-02T19:17:16.901Z,81
2023-04-02T19:18:56.721Z,81
2023-04-02T19:20:36.408Z,81
2023-04-02T19:22:16.191Z,80
2023-04-02T19:23:55.956Z,80
2023-04-02T19:25:35.612Z,80
2023-04-02T19:27:15.541Z,80
2023-04-02T19:28:55.308Z,80
2023-04-02T19:30:35.097Z,80
2023-04-02T19:32:14.660Z,80
2023-04-02T19:33:54.624Z,80
2023-04-02T19:35:34.342Z,79
2023-04-02T19:37:14.218Z,79
2023-04-02T19:38:53.900Z,79
2023-04-02T19:40:33.675Z,79
2023-04-02T19:42:13.431Z,79
2023-04-02T19:43:53.241Z,79
2023-04-02T19:45:32.956Z,79
2023-04-02T19:47:12.766Z,79
2023-04-02T19:48:52.489Z,78
2023-04-02T19:50:32.302Z,78
2023-04-02T19:52:11.878Z,78
2023-04-02T19:53:51.875Z,78
2023-04-02T19:55:31.509Z,78
2023-04-02T19:57:11.188Z,78
2023-04-02T19:58:51.137Z,78
2023-04-02T20:00:30.834Z,78
2023-04-02T20:02:10.480Z,77
2023-04-02T20:03:50.389Z,77
2023-04-02T20:05:30.208Z,77
2023-04-02T20:07:09.979Z,77
2023-04-02T20:08:49.764Z,77
2023-04-02T20:10:29.306Z,77
2023-04-02T20:12:09.073Z,77
2023-04-02T20:13:49.004Z,77
2023-04-02T20:15:28.738Z,77
2023-04-02T20:17:08.508Z,77
2023-04-02T20:18:48.314Z,77
2023-04-02T20:20:27.910Z,77
2023-04-02T20:22:07.852Z,77
2023-04-02T20:23:47.639Z,76
2023-04-02T20:25:27.412Z,76
2023-04-02T20:27:07.120Z,76
2023-04-02T20:28:46.936Z,76
2023-04-02T20:30:26.611Z,76
2023-04-02T20:32:06.372Z,76
2023-04-02T20:33:46.201Z,76
2023-04-02T20:35:26.028Z,76
2023-04-02T20:37:05.782Z,76
2023-04-02T20:38:45.557Z,76
2023-04-02T20:40:25.140Z,76
2023-04-02T20:42:05.066Z,76
2023-04-02T20:43:44.882Z,75
2023-04-02T20:45:24.514Z,75
2023-04-02T20:47:04.347Z,75
2023-04-02T20:48:43.967Z,75
2023-04-02T20:50:23.830Z,75
2023-04-02T20:52:03.491Z,75
2023-04-02T20:53:43.363Z,75
2023-04-02T20:55:23.231Z,75
2023-04-02T20:57:03.046Z,75
2023-04-02T20:58:42.605Z,75
2023-04-02T21:00:22.329Z,75
2023-04-02T21:02:02.292Z,75
2023-04-02T21:03:41.949Z,75
2023-04-02T21:05:21.759Z,75
2023-04-02T21:07:01.524Z,75
2023-04-02T21:08:41.358Z,75
2023-04-02T21:10:21.014Z,75
2023-04-02T21:12:00.838Z,75
2023-04-02T21:13:40.633Z,75
2023-04-02T21:15:20.340Z,75
2023-04-02T21:17:00.248Z,75
2023-04-02T21:18:39.934Z,74
2023-04-02T21:20:19.539Z,75
2023-04-02T21:21:59.423Z,75
2023-04-02T21:23:39.301Z,74
2023-04-02T21:25:19.019Z,74
2023-04-02T21:26:58.785Z,74
2023-04-02T21:28:38.578Z,74
2023-04-02T21:30:18.230Z,74
2023-04-02T21:31:57.931Z,74
2023-04-02T21:33:37.847Z,74
2023-04-02T21:35:17.589Z,74
2023-04-02T21:36:57.385Z,74
2023-04-02T21:38:37.126Z,74
2023-04-02T21:40:16.887Z,74
2023-04-02T21:41:56.706Z,74
2023-04-02T21:43:36.287Z,74
2023-04-02T21:45:16.241Z,74
2023-04-02T21:46:55.982Z,73
2023-04-02T21:48:35.757Z,73
2023-04-02T21:50:15.515Z,73
2023-04-02T21:51:55.230Z,74
2023-04-02T21:53:35.090Z,74
2023-04-02T21:55:14.813Z,73
2023-04-02T21:56:54.500Z,73
2023-04-02T21:58:34.358Z,73
2023-04-02T22:00:14.144Z,73
2023-04-02T22:01:53.778Z,72
2023-04-02T22:03:33.712Z,72
2023-04-02T22:05:13.391Z,73
2023-04-02T22:06:53.247Z,73
2023-04-02T22:08:32.973Z,72
2023-04-02T22:10:12.727Z,72
2023-04-02T22:11:52.498Z,72
2023-04-02T22:13:32.288Z,72
2023-04-02T22:15:12.044Z,71
2023-04-02T22:16:51.789Z,73
2023-04-02T22:18:31.548Z,72
2023-04-02T22:20:11.325Z,73
2023-04-02T22:21:50.926Z,71
2023-04-02T22:23:30.908Z,70
2023-04-02T22:25:10.501Z,67
2023-04-02T22:26:50.395Z,67
2023-04-02T22:28:30.142Z,69
2023-04-02T22:30:09.921Z,70
2023-04-02T22:31:49.707Z,72
2023-04-02T22:33:29.456Z,71
2023-04-02T22:35:09.046Z,71
2023-04-02T22:36:49.011Z,72
2023-04-02T22:38:28.702Z,71
2023-04-02T22:40:08.543Z,71
2023-04-02T22:41:48.290Z,71
2023-04-02T22:43:28.054Z,72
2023-04-02T22:45:07.869Z,70
2023-04-02T22:46:47.564Z,69
2023-04-02T22:48:27.423Z,70
2023-04-02T22:50:07.138Z,69
2023-04-02T22:51:46.952Z,68
2023-04-02T22:53:26.689Z,69
2023-04-02T22:55:06.428Z,71
2023-04-02T22:56:46.249Z,72
2023-04-02T22:58:25.989Z,70
2023-04-02T23:00:05.736Z,71
2023-04-02T23:01:45.476Z,70
2023-04-02T23:03:25.095Z,68
2023-04-02T23:05:04.878Z,68
2023-04-02T23:06:44.812Z,68
2023-04-02T23:08:24.571Z,69
2023-04-02T23:10:04.328Z,68
2023-04-02T23:11:44.138Z,70
2023-04-02T23:13:23.803Z,70
2023-04-02T23:15:03.640Z,70
2023-04-02T23:16:43.406Z,70
2023-04-02T23:18:23.217Z,71
2023-04-02T23:20:02.763Z,70
2023-04-02T23:21:42.773Z,70
2023-04-02T23:23:22.520Z,70
2023-04-02T23:25:02.218Z,71
2023-04-02T23:26:42.038Z,70
2023-04-02T23:28:21.787Z,67